Terminal Aerodrome Forecast
Issued by NWS

Home | Current Version | Previous Version | Text Only | Print | Product List | Glossary On
Versions: 1 2 3 4 5 6 7 8 9 10 11 12 13 14 15 16
000
FTUS45 KRIW 250500
TAFCPR
TAF
KCPR 250533Z 2506/2606 22017G25KT P6SM SCT080 BKN120
     FM251100 01009KT 5SM -SN OVC030
     FM251500 02010G20KT 1SM -SN SCT003 OVC008=

USA.gov is the U.S. government's official web portal to all federal, state and local government web resources and services.